Time;durP1;ratioP1;P1;durP2;ratioP2;P2;SDS_P1;SDS_P2;PMS_P1;PMS_P2;Temp;Humidity;BMP_temperature;BMP_pressure;BME280_temperature;BME280_humidity;BME280_pressure;Samples;Min_cycle;Max_cycle;Signal;HPM_P1;HPM_P2
2023/07/31 00:01:17;;;;;;;3.38;1.60;;;;;;;26.08;40.11;99024.91;5090651;28;20136;-43
2023/07/31 00:03:43;;;;;;;1.27;1.17;;;;;;;26.05;40.19;99020.09;5090890;28;20232;-44
2023/07/31 00:06:08;;;;;;;1.52;1.30;;;;;;;26.10;39.76;99021.84;5090607;28;20027;-43
2023/07/31 00:08:34;;;;;;;2.15;1.40;;;;;;;26.19;39.67;99024.56;5090693;28;20290;-43
2023/07/31 00:10:59;;;;;;;1.50;1.23;;;;;;;26.39;39.63;99029.31;5090265;28;20024;-43
2023/07/31 00:13:25;;;;;;;2.58;1.70;;;;;;;26.23;39.89;99023.56;5090040;28;20022;-43
2023/07/31 00:15:50;;;;;;;2.78;1.48;;;;;;;26.31;39.70;99019.22;5090417;28;20024;-43
2023/07/31 00:18:16;;;;;;;1.48;1.38;;;;;;;26.45;39.42;99021.75;5090279;28;20020;-45
2023/07/31 00:20:41;;;;;;;1.90;1.45;;;;;;;26.32;40.03;99032.53;5090331;28;20024;-44
2023/07/31 00:23:06;;;;;;;2.75;1.70;;;;;;;26.32;39.62;99034.47;5090330;28;20054;-42
2023/07/31 00:25:32;;;;;;;1.92;1.52;;;;;;;25.89;40.72;99043.47;5090271;28;20032;-41
2023/07/31 00:27:57;;;;;;;1.85;1.55;;;;;;;26.05;40.11;99039.19;5090333;28;20024;-43
2023/07/31 00:30:25;;;;;;;2.13;1.30;;;;;;;26.16;40.20;99047.00;5090197;28;20248;-43
2023/07/31 00:32:50;;;;;;;3.28;1.60;;;;;;;26.31;39.70;99044.56;5090284;28;20032;-46
2023/07/31 00:35:16;;;;;;;2.20;1.48;;;;;;;25.94;40.39;99037.91;5089962;28;20020;-43
2023/07/31 00:37:41;;;;;;;3.10;1.67;;;;;;;26.12;40.04;99039.50;5090146;28;20444;-45
2023/07/31 00:40:07;;;;;;;2.10;1.70;;;;;;;26.23;40.03;99041.84;5089754;28;20462;-44
2023/07/31 00:42:33;;;;;;;2.13;1.30;;;;;;;26.13;40.43;99030.16;5089805;28;20023;-43
2023/07/31 00:44:58;;;;;;;2.15;1.73;;;;;;;26.12;40.40;99041.41;5089941;28;20026;-44
2023/07/31 00:47:24;;;;;;;1.70;1.50;;;;;;;26.02;40.64;99039.81;5089948;28;20080;-44
2023/07/31 00:49:49;;;;;;;3.85;1.60;;;;;;;25.99;40.99;99039.66;5090366;28;20107;-42
2023/07/31 00:52:15;;;;;;;2.00;1.40;;;;;;;25.97;41.13;99045.44;5090810;28;20030;-43
2023/07/31 00:54:41;;;;;;;3.85;1.60;;;;;;;26.12;40.69;99039.50;5090446;28;20024;-46
2023/07/31 00:57:08;;;;;;;2.35;1.60;;;;;;;26.26;40.86;99052.13;5090719;28;20088;-43
2023/07/31 00:59:33;;;;;;;1.73;1.48;;;;;;;26.42;40.44;99045.00;5090382;28;20073;-44
2023/07/31 01:01:59;;;;;;;2.42;1.42;;;;;;;26.16;40.55;99053.28;5090578;28;20028;-43
2023/07/31 01:04:26;;;;;;;3.75;1.60;;;;;;;26.06;41.03;99042.69;5090566;28;20016;-45
2023/07/31 01:06:54;;;;;;;6.85;1.73;;;;;;;26.11;40.78;99050.72;5090323;28;20032;-46
2023/07/31 01:09:28;;;;;;;2.05;1.55;;;;;;;26.25;40.48;99050.50;5090289;28;20480;-44
2023/07/31 01:11:59;;;;;;;1.95;1.60;;;;;;;26.42;40.37;99055.13;5090364;28;20024;-45
2023/07/31 01:14:25;;;;;;;2.85;2.20;;;;;;;26.49;40.17;99058.16;5090604;28;20344;-47
2023/07/31 01:16:50;;;;;;;2.25;1.90;;;;;;;26.53;39.85;99064.56;5090536;28;20024;-42
2023/07/31 01:19:21;;;;;;;3.38;1.70;;;;;;;26.78;39.21;99051.16;5090256;28;20024;-43
2023/07/31 01:22:04;;;;;;;2.35;1.80;;;;;;;26.47;39.80;99050.28;5090328;28;20095;-43
2023/07/31 01:25:02;;;;;;;2.55;1.70;;;;;;;26.55;39.96;99056.06;5091311;28;20024;-46
2023/07/31 01:27:35;;;;;;;2.63;1.95;;;;;;;26.55;40.01;99048.66;5093735;28;20066;-44
2023/07/31 01:30:16;;;;;;;4.35;1.80;;;;;;;26.58;40.25;99047.19;5094368;28;20016;-44
2023/07/31 01:32:47;;;;;;;4.80;1.80;;;;;;;26.59;39.98;99043.34;5094078;28;20552;-43
2023/07/31 01:35:13;;;;;;;2.30;1.95;;;;;;;26.59;40.04;99059.72;5094008;28;20063;-47
2023/07/31 01:37:38;;;;;;;2.65;2.00;;;;;;;26.51;40.30;99056.69;5094091;28;20024;-45
2023/07/31 01:40:05;;;;;;;3.47;2.30;;;;;;;26.47;40.32;99052.22;5094241;28;20028;-43
2023/07/31 01:42:30;;;;;;;3.40;2.38;;;;;;;26.49;40.36;99064.41;5094136;28;20036;-42
2023/07/31 01:44:55;;;;;;;4.45;2.17;;;;;;;26.45;40.26;99055.28;5094325;28;20016;-43
2023/07/31 01:47:21;;;;;;;4.75;2.22;;;;;;;26.40;40.39;99052.72;5093698;28;20353;-42
2023/07/31 01:49:46;;;;;;;5.45;2.80;;;;;;;26.47;40.12;99052.22;5093973;28;20107;-44
2023/07/31 01:52:11;;;;;;;4.43;2.35;;;;;;;26.49;39.97;99050.75;5093708;28;20020;-43
2023/07/31 01:54:37;;;;;;;5.65;2.92;;;;;;;26.47;40.16;99049.50;5093734;28;20023;-42
2023/07/31 01:57:03;;;;;;;4.10;2.45;;;;;;;26.49;40.26;99039.06;5093584;28;20401;-44
2023/07/31 01:59:28;;;;;;;4.55;2.72;;;;;;;26.39;40.28;99048.41;5093673;28;20455;-45
2023/07/31 02:01:54;;;;;;;4.70;2.53;;;;;;;26.39;40.33;99040.22;5093720;28;20039;-45
2023/07/31 02:04:19;;;;;;;3.83;2.88;;;;;;;26.27;40.32;99046.34;5093551;28;20107;-43
2023/07/31 02:06:45;;;;;;;3.92;2.60;;;;;;;26.38;40.39;99046.78;5093498;28;20024;-43
2023/07/31 02:09:10;;;;;;;4.63;2.72;;;;;;;26.31;40.26;99043.75;5093753;28;20027;-42
2023/07/31 02:11:35;;;;;;;3.80;3.05;;;;;;;26.27;40.23;99054.53;5093715;28;20028;-42
2023/07/31 02:14:01;;;;;;;5.18;3.55;;;;;;;26.33;40.47;99046.97;5093815;28;20024;-47
2023/07/31 02:16:26;;;;;;;7.18;5.10;;;;;;;26.27;40.42;99046.34;5093313;28;20024;-45
2023/07/31 02:18:52;;;;;;;8.57;5.93;;;;;;;26.34;40.35;99051.31;5093453;28;20024;-43
2023/07/31 02:21:17;;;;;;;11.25;6.78;;;;;;;26.31;40.21;99051.94;5093402;28;20077;-43
2023/07/31 02:23:43;;;;;;;9.98;6.25;;;;;;;26.37;39.87;99042.47;5093288;28;20024;-44
2023/07/31 02:26:08;;;;;;;8.68;5.25;;;;;;;26.46;39.81;99048.69;5093316;28;20028;-45
2023/07/31 02:28:34;;;;;;;5.47;3.65;;;;;;;26.39;40.22;99045.69;5092817;28;20028;-43
2023/07/31 02:30:59;;;;;;;6.00;3.65;;;;;;;26.28;40.34;99014.44;5093228;28;20027;-43
2023/07/31 02:33:24;;;;;;;6.47;3.03;;;;;;;26.49;40.60;99039.06;5093158;28;20414;-43
2023/07/31 02:35:50;;;;;;;3.60;2.80;;;;;;;26.60;40.84;99028.59;5092885;28;20067;-44
2023/07/31 02:38:15;;;;;;;4.30;2.65;;;;;;;26.76;40.68;99028.88;5093335;28;20024;-42
2023/07/31 02:40:41;;;;;;;3.15;2.65;;;;;;;26.72;41.30;99026.78;5092969;28;20467;-43
2023/07/31 02:43:07;;;;;;;3.03;2.70;;;;;;;26.73;42.09;99027.56;5093243;28;20370;-42
2023/07/31 02:45:32;;;;;;;3.40;2.53;;;;;;;26.79;42.44;99030.91;5093022;28;20112;-41
2023/07/31 02:47:58;;;;;;;3.63;2.75;;;;;;;26.66;43.81;99028.09;5092637;28;20119;-41
2023/07/31 02:50:23;;;;;;;3.75;2.58;;;;;;;26.80;44.46;99036.06;5091797;28;20125;-42
2023/07/31 02:52:49;;;;;;;6.57;2.97;;;;;;;26.95;44.40;99029.25;5091305;28;20039;-44
2023/07/31 02:55:14;;;;;;;4.90;2.92;;;;;;;26.98;45.05;99030.50;5091385;28;20024;-42
2023/07/31 02:57:39;;;;;;;4.32;3.03;;;;;;;27.00;45.45;99025.53;5091277;28;20028;-42
2023/07/31 03:00:06;;;;;;;4.43;3.03;;;;;;;26.96;45.98;99024.56;5091104;28;20035;-42
2023/07/31 03:02:32;;;;;;;4.68;3.08;;;;;;;26.71;46.99;99025.19;5091587;28;20020;-42
2023/07/31 03:04:57;;;;;;;7.93;3.53;;;;;;;26.94;46.91;99026.84;5091703;28;20368;-41
2023/07/31 03:07:23;;;;;;;10.05;6.40;;;;;;;27.11;46.79;99015.81;5092493;28;20115;-41
2023/07/31 03:09:48;;;;;;;10.18;6.88;;;;;;;27.12;47.25;99022.88;5092557;28;20012;-44
2023/07/31 03:12:14;;;;;;;3.63;3.33;;;;;;;27.17;47.40;99022.69;5092535;28;20514;-41
2023/07/31 03:14:39;;;;;;;3.83;3.40;;;;;;;27.01;48.04;99016.19;5092429;28;20029;-44
2023/07/31 03:17:05;;;;;;;4.15;3.28;;;;;;;26.98;48.19;99022.31;5092374;28;20028;-42
2023/07/31 03:19:32;;;;;;;7.50;3.45;;;;;;;26.56;50.16;99023.00;5092259;28;20053;-42
2023/07/31 03:21:58;;;;;;;6.57;3.58;;;;;;;26.48;52.92;99026.53;5092349;28;20332;-41
2023/07/31 03:24:23;;;;;;;5.93;3.58;;;;;;;26.33;55.58;99025.97;5092150;28;20082;-42
2023/07/31 03:26:48;;;;;;;7.28;4.00;;;;;;;26.17;56.97;99035.00;5092129;28;20077;-40
2023/07/31 03:29:14;;;;;;;5.50;3.67;;;;;;;26.12;58.48;99044.13;5092503;28;20020;-41
2023/07/31 03:31:39;;;;;;;5.32;4.13;;;;;;;25.84;60.32;99030.84;5092431;28;20020;-40
2023/07/31 03:34:05;;;;;;;5.07;4.18;;;;;;;25.96;61.23;99048.50;5092240;28;20013;-41
2023/07/31 03:36:30;;;;;;;6.38;4.50;;;;;;;25.91;62.23;99063.91;5092047;28;20071;-41
2023/07/31 03:38:55;;;;;;;5.85;4.65;;;;;;;25.83;63.33;99063.84;5091962;28;20073;-42
2023/07/31 03:41:21;;;;;;;6.97;4.80;;;;;;;25.58;64.24;99066.25;5092236;28;20085;-40
2023/07/31 03:43:57;;;;;;;6.45;4.82;;;;;;;25.63;64.27;99059.88;5091870;28;20131;-40
2023/07/31 03:46:24;;;;;;;9.10;5.35;;;;;;;25.17;65.63;99067.47;5091943;28;20020;-42
2023/07/31 03:48:50;;;;;;;7.90;4.90;;;;;;;25.34;65.28;99083.88;5091539;28;20440;-40
2023/07/31 03:51:16;;;;;;;11.18;8.68;;;;;;;25.46;65.06;99091.41;5091806;28;20024;-42
2023/07/31 03:53:42;;;;;;;6.38;5.20;;;;;;;25.33;66.16;99089.63;5092206;28;20035;-40
2023/07/31 03:56:07;;;;;;;6.60;4.95;;;;;;;25.27;66.49;99102.59;5091815;28;20024;-41
2023/07/31 03:58:32;;;;;;;7.50;5.10;;;;;;;25.04;68.45;99101.84;5091947;28;20016;-41
2023/07/31 04:00:58;;;;;;;7.95;5.03;;;;;;;25.14;68.48;99106.19;5092349;28;20020;-41
2023/07/31 04:03:23;;;;;;;6.60;4.65;;;;;;;25.23;68.44;99114.44;5091664;28;20383;-40
2023/07/31 04:05:49;;;;;;;8.45;4.68;;;;;;;25.14;68.86;99111.63;5091540;28;20024;-41
2023/07/31 04:08:14;;;;;;;9.65;6.22;;;;;;;24.99;68.70;99107.41;5091723;28;20111;-39
2023/07/31 04:10:39;;;;;;;7.53;4.22;;;;;;;25.06;68.54;99110.50;5091322;28;20028;-41
2023/07/31 04:13:05;;;;;;;5.55;4.40;;;;;;;25.02;69.25;99112.25;5091449;28;20020;-41
2023/07/31 04:15:30;;;;;;;7.63;4.40;;;;;;;24.93;69.08;99111.41;5091228;28;20023;-40
2023/07/31 04:17:56;;;;;;;7.25;4.75;;;;;;;24.78;69.32;99109.91;5090819;28;20094;-42
2023/07/31 04:20:21;;;;;;;7.43;5.03;;;;;;;24.79;69.75;99106.06;5090423;28;20031;-41
2023/07/31 04:22:47;;;;;;;6.07;4.60;;;;;;;24.80;70.82;99118.56;5090487;28;20055;-41
2023/07/31 04:25:12;;;;;;;8.63;7.20;;;;;;;24.88;70.27;99119.69;5090480;28;20464;-41
2023/07/31 04:27:38;;;;;;;13.27;9.00;;;;;;;24.87;69.68;99118.91;5090835;28;20035;-42
2023/07/31 04:30:04;;;;;;;6.35;4.60;;;;;;;24.87;69.87;99126.28;5091012;28;20047;-41
2023/07/31 04:32:30;;;;;;;6.93;5.80;;;;;;;24.91;70.04;99128.03;5090854;28;20030;-42
2023/07/31 04:34:55;;;;;;;13.05;9.93;;;;;;;24.87;70.08;99131.72;5091200;28;20024;-43
2023/07/31 04:37:21;;;;;;;11.10;9.45;;;;;;;24.82;69.83;99127.19;5090721;28;20040;-41
2023/07/31 04:39:46;;;;;;;6.68;5.80;;;;;;;24.89;69.36;99134.94;5091012;28;20383;-41
2023/07/31 04:42:12;;;;;;;6.47;5.35;;;;;;;24.97;69.58;99134.94;5090534;28;20020;-41
2023/07/31 04:44:37;;;;;;;6.82;5.40;;;;;;;24.92;70.19;99137.81;5090779;28;20093;-41
2023/07/31 04:47:03;;;;;;;6.78;5.45;;;;;;;24.83;71.06;99134.25;5090602;28;20085;-45
2023/07/31 04:49:28;;;;;;;15.07;11.45;;;;;;;24.76;71.46;99134.69;5091190;28;20024;-42
2023/07/31 04:51:54;;;;;;;7.15;5.40;;;;;;;24.89;69.74;99133.00;5090375;28;20032;-42
2023/07/31 04:54:19;;;;;;;6.28;4.80;;;;;;;25.01;69.44;99128.88;5090388;28;20023;-42
2023/07/31 04:56:45;;;;;;;6.63;5.03;;;;;;;25.07;68.58;99130.34;5090159;28;20020;-44
2023/07/31 04:59:10;;;;;;;5.55;4.53;;;;;;;25.05;69.46;99135.31;5089072;28;20039;-42
2023/07/31 05:01:35;;;;;;;6.05;4.65;;;;;;;25.18;68.98;99132.47;5090209;28;20054;-43
2023/07/31 05:04:01;;;;;;;5.22;4.57;;;;;;;25.10;68.48;99130.53;5090010;28;20027;-42
2023/07/31 05:06:26;;;;;;;14.77;10.30;;;;;;;25.23;67.72;99136.22;5090000;28;20440;-44
2023/07/31 05:08:52;;;;;;;13.45;10.02;;;;;;;25.39;67.15;99129.19;5090053;28;20039;-42
2023/07/31 05:11:17;;;;;;;6.88;5.10;;;;;;;25.48;65.96;99131.94;5090245;28;20039;-43
2023/07/31 05:13:43;;;;;;;7.57;6.05;;;;;;;25.45;66.79;99129.84;5090198;28;20031;-42
2023/07/31 05:16:08;;;;;;;7.22;5.50;;;;;;;25.48;67.42;99137.41;5090182;28;20457;-41
2023/07/31 05:18:33;;;;;;;6.38;4.60;;;;;;;25.49;67.63;99134.34;5089526;28;20119;-44
2023/07/31 05:20:59;;;;;;;6.22;4.40;;;;;;;25.52;66.89;99128.25;5089919;28;20028;-42
2023/07/31 05:23:24;;;;;;;7.45;4.40;;;;;;;25.68;66.46;99125.91;5089752;28;20035;-43
2023/07/31 05:25:50;;;;;;;7.20;4.20;;;;;;;25.72;65.67;99131.47;5071731;28;20020;-42
2023/07/31 05:28:15;;;;;;;7.10;4.57;;;;;;;25.74;65.07;99135.50;5089619;28;20024;-44
2023/07/31 05:30:40;;;;;;;7.63;5.15;;;;;;;25.77;65.63;99130.53;5089377;28;20103;-43
2023/07/31 05:33:06;;;;;;;5.20;4.28;;;;;;;25.75;65.31;99134.38;5089486;28;20357;-44
2023/07/31 05:35:31;;;;;;;6.85;4.10;;;;;;;25.96;64.43;99141.16;5089736;28;20048;-43
2023/07/31 05:37:57;;;;;;;5.85;4.20;;;;;;;25.92;63.48;99141.00;5089838;28;20089;-42
2023/07/31 05:40:22;;;;;;;5.40;4.00;;;;;;;26.04;63.59;99146.59;5089864;28;20062;-44
2023/07/31 05:42:47;;;;;;;5.40;4.13;;;;;;;26.19;62.66;99145.31;5089725;28;20020;-43
2023/07/31 05:45:13;;;;;;;5.70;3.95;;;;;;;26.46;62.23;99148.81;5089648;28;20024;-44
2023/07/31 05:47:39;;;;;;;8.00;4.10;;;;;;;26.94;60.96;99147.75;5089370;28;20019;-43
2023/07/31 05:50:05;;;;;;;4.95;3.60;;;;;;;27.07;57.94;99145.94;5089861;28;20107;-43
2023/07/31 05:52:30;;;;;;;4.90;3.67;;;;;;;27.12;57.88;99148.47;5089704;28;20034;-44
2023/07/31 05:54:56;;;;;;;6.68;4.03;;;;;;;27.32;56.79;99146.94;5089413;28;20349;-44
2023/07/31 05:57:21;;;;;;;5.80;3.97;;;;;;;27.27;57.44;99150.69;5089620;28;20421;-46
2023/07/31 05:59:46;;;;;;;7.60;4.80;;;;;;;27.80;55.76;99153.13;5089519;28;20032;-42
2023/07/31 06:02:12;;;;;;;8.75;4.85;;;;;;;28.12;54.12;99145.31;5089726;28;20032;-45
2023/07/31 06:04:37;;;;;;;7.00;4.55;;;;;;;28.15;54.48;99147.38;5089435;28;20482;-42
2023/07/31 06:07:03;;;;;;;6.75;4.53;;;;;;;28.35;53.85;99151.22;5089092;28;20076;-42
2023/07/31 06:09:29;;;;;;;5.90;4.65;;;;;;;28.75;52.81;99151.50;5088808;28;20016;-43
2023/07/31 06:11:54;;;;;;;7.95;4.75;;;;;;;29.19;51.57;99151.78;5084541;28;20032;-42
2023/07/31 06:14:19;;;;;;;6.68;5.13;;;;;;;29.29;50.39;99131.34;5095345;28;20027;-46
2023/07/31 06:16:45;;;;;;;6.85;4.95;;;;;;;29.83;48.71;99141.22;5091791;28;20101;-42
2023/07/31 06:19:10;;;;;;;7.22;5.10;;;;;;;30.20;47.39;99149.34;5072707;28;20125;-42
2023/07/31 06:21:41;;;;;;;7.32;5.47;;;;;;;30.75;46.32;99146.91;5072417;28;20028;-45
2023/07/31 06:24:07;;;;;;;5.75;5.05;;;;;;;30.55;46.11;99148.72;5072851;28;20036;-44
2023/07/31 06:26:33;;;;;;;5.68;5.00;;;;;;;30.70;44.86;99147.16;5072557;28;20028;-45
2023/07/31 06:28:58;;;;;;;7.45;5.57;;;;;;;31.12;44.80;99141.16;5072742;28;20024;-44
2023/07/31 06:31:24;;;;;;;7.25;6.00;;;;;;;31.52;43.73;99151.94;5072292;28;20035;-42
2023/07/31 06:33:50;;;;;;;9.77;5.80;;;;;;;31.50;43.89;99150.72;5070932;28;20028;-42
2023/07/31 06:36:16;;;;;;;6.05;5.32;;;;;;;31.75;43.08;99146.53;5070710;28;20522;-42
2023/07/31 06:38:41;;;;;;;7.43;6.00;;;;;;;31.82;42.82;99148.66;5070758;28;20032;-44
2023/07/31 06:41:07;;;;;;;6.80;5.60;;;;;;;32.16;42.67;99146.25;5070601;28;20028;-42
2023/07/31 06:43:32;;;;;;;9.02;5.88;;;;;;;32.46;42.65;99143.69;5071985;28;20020;-44
2023/07/31 06:45:57;;;;;;;7.40;5.68;;;;;;;32.36;41.98;99140.72;5072079;28;20020;-43
2023/07/31 06:48:23;;;;;;;8.57;6.13;;;;;;;32.66;41.74;99135.41;5084301;28;20020;-45
2023/07/31 06:50:48;;;;;;;8.02;6.32;;;;;;;32.72;41.02;99129.22;5092715;28;20445;-43
2023/07/31 06:53:14;;;;;;;6.93;6.13;;;;;;;32.51;40.94;99137.84;5092705;28;20110;-42
2023/07/31 06:55:39;;;;;;;6.70;5.93;;;;;;;32.41;41.08;99138.47;5092417;28;20016;-45
2023/07/31 06:58:05;;;;;;;8.68;6.43;;;;;;;32.66;40.37;99130.69;5092354;28;20027;-44
2023/07/31 07:00:30;;;;;;;6.90;6.20;;;;;;;32.55;40.53;99143.44;5092098;28;20375;-44
2023/07/31 07:02:56;;;;;;;8.50;6.35;;;;;;;32.95;40.14;99139.41;5092076;28;20031;-43
2023/07/31 07:05:21;;;;;;;9.55;6.53;;;;;;;33.02;39.99;99136.78;5091747;28;20035;-43
2023/07/31 07:07:50;;;;;;;8.02;6.18;;;;;;;33.11;40.17;99137.38;5092088;28;20020;-43
2023/07/31 07:10:15;;;;;;;9.85;6.10;;;;;;;32.31;40.50;99136.28;5091937;28;20043;-44
2023/07/31 07:12:40;;;;;;;7.47;6.28;;;;;;;32.14;41.29;99137.56;5092323;28;20028;-43
2023/07/31 07:15:06;;;;;;;7.53;6.68;;;;;;;33.12;40.10;99140.91;5091996;28;20027;-44
2023/07/31 07:17:32;;;;;;;7.20;5.90;;;;;;;33.70;38.39;99134.31;5092255;28;20036;-44
2023/07/31 07:19:57;;;;;;;7.03;6.32;;;;;;;33.54;38.17;99126.16;5092112;28;20107;-43
2023/07/31 07:22:23;;;;;;;7.00;6.30;;;;;;;33.78;38.08;99141.50;5090732;28;20158;-43
2023/07/31 07:24:49;;;;;;;7.53;6.75;;;;;;;34.05;37.94;99138.66;5091498;28;20055;-44
2023/07/31 07:27:14;;;;;;;7.72;6.35;;;;;;;34.08;37.80;99143.41;5091956;28;20097;-44
2023/07/31 07:29:40;;;;;;;8.05;6.45;;;;;;;33.94;38.41;99138.53;5092138;28;20020;-43
2023/07/31 07:32:06;;;;;;;7.97;7.10;;;;;;;33.89;38.01;99122.28;5091838;28;20031;-43
2023/07/31 07:34:31;;;;;;;8.75;6.82;;;;;;;34.08;38.34;99137.91;5092013;28;20040;-43
2023/07/31 07:36:56;;;;;;;8.95;6.63;;;;;;;34.18;38.08;99131.75;5091465;28;20054;-42
2023/07/31 07:39:22;;;;;;;9.38;7.38;;;;;;;34.78;37.24;99141.81;5091302;28;20038;-43
2023/07/31 07:41:47;;;;;;;8.13;7.20;;;;;;;34.74;36.97;99138.25;5091820;28;20032;-45
2023/07/31 07:44:14;;;;;;;7.78;6.65;;;;;;;35.11;36.56;99126.31;5091349;28;20503;-44
2023/07/31 07:46:39;;;;;;;7.78;6.97;;;;;;;35.79;35.19;99128.72;5091232;28;20027;-44
2023/07/31 07:49:05;;;;;;;9.13;7.18;;;;;;;36.42;34.26;99126.56;5091131;28;20016;-44
2023/07/31 07:51:31;;;;;;;8.73;7.82;;;;;;;35.93;34.57;99128.78;5090893;28;20032;-42
2023/07/31 07:53:57;;;;;;;8.93;7.57;;;;;;;34.93;36.08;99133.66;5091055;28;20133;-44
2023/07/31 07:56:24;;;;;;;7.53;6.82;;;;;;;34.41;36.69;99126.06;5091249;28;20067;-45
2023/07/31 07:58:50;;;;;;;9.27;7.15;;;;;;;34.73;36.80;99136.69;5090815;28;20085;-43
2023/07/31 08:01:15;;;;;;;7.47;6.78;;;;;;;35.21;35.63;99136.69;5091120;28;20028;-44
2023/07/31 08:03:41;;;;;;;8.82;7.20;;;;;;;35.23;35.54;99133.53;5091127;28;20028;-42
2023/07/31 08:06:09;;;;;;;7.43;6.72;;;;;;;35.46;34.65;99136.03;5091257;28;20028;-43
2023/07/31 08:08:34;;;;;;;8.07;7.03;;;;;;;35.59;34.84;99125.47;5091066;28;20452;-46
2023/07/31 08:11:00;;;;;;;8.25;7.22;;;;;;;35.25;34.86;99122.88;5091144;28;20030;-45
2023/07/31 08:13:25;;;;;;;7.57;6.88;;;;;;;35.16;36.06;99119.63;5091110;28;20071;-44
2023/07/31 08:15:51;;;;;;;7.85;6.70;;;;;;;35.40;34.62;99121.78;5091002;28;20073;-44
2023/07/31 08:18:17;;;;;;;7.47;6.78;;;;;;;35.71;34.10;99118.81;5091061;28;20031;-44
2023/07/31 08:20:43;;;;;;;8.13;6.65;;;;;;;36.04;33.38;99112.22;5090702;28;20115;-44
2023/07/31 08:23:09;;;;;;;7.35;6.10;;;;;;;36.37;32.49;99110.38;5090775;28;20028;-44
2023/07/31 08:25:35;;;;;;;6.80;6.10;;;;;;;36.85;31.96;99115.56;5090876;28;20028;-43
2023/07/31 08:28:01;;;;;;;6.80;6.20;;;;;;;37.00;32.20;99113.56;5090862;28;20080;-43
2023/07/31 08:30:27;;;;;;;7.05;6.35;;;;;;;36.42;32.69;99100.84;5090604;28;20035;-47
2023/07/31 08:32:52;;;;;;;6.72;6.00;;;;;;;36.62;31.90;99104.06;5090773;28;20054;-43
2023/07/31 08:35:18;;;;;;;7.80;6.35;;;;;;;36.56;32.06;99104.44;5090664;28;20032;-45
2023/07/31 08:37:43;;;;;;;7.13;6.43;;;;;;;36.25;32.24;99105.19;5090456;28;20472;-42
2023/07/31 08:40:09;;;;;;;8.55;7.70;;;;;;;35.35;33.85;99105.56;5090395;28;20028;-45
2023/07/31 08:42:49;;;;;;;8.80;8.00;;;;;;;35.61;33.19;99106.50;5090763;28;20032;-44
2023/07/31 08:45:17;;;;;;;9.85;8.32;;;;;;;35.02;34.10;99106.50;5090538;28;20487;-46
2023/07/31 08:47:50;;;;;;;11.20;7.70;;;;;;;35.75;33.37;99112.09;5090436;28;20028;-45
2023/07/31 08:50:20;;;;;;;8.10;7.30;;;;;;;35.76;33.12;99099.09;5090518;28;20148;-43
2023/07/31 08:52:47;;;;;;;7.82;7.03;;;;;;;35.72;32.70;99110.13;5090467;28;20035;-43
2023/07/31 08:55:14;;;;;;;7.70;6.75;;;;;;;35.97;32.43;99106.66;5090287;28;20024;-44
2023/07/31 08:57:41;;;;;;;7.30;6.60;;;;;;;35.86;32.50;99106.63;5090172;28;20103;-46
2023/07/31 09:00:09;;;;;;;7.65;6.90;;;;;;;36.04;31.82;99100.34;5090172;28;20032;-42
2023/07/31 09:02:54;;;;;;;9.48;7.72;;;;;;;36.24;32.27;99104.41;5090111;28;20095;-43
2023/07/31 09:05:21;;;;;;;8.32;6.90;;;;;;;35.84;32.60;99105.44;5089766;28;20035;-44
2023/07/31 09:07:48;;;;;;;9.35;6.78;;;;;;;35.51;32.75;99105.25;5089842;28;20175;-43
2023/07/31 09:10:13;;;;;;;8.48;7.20;;;;;;;35.75;32.29;99106.56;5090149;28;20032;-44
2023/07/31 09:12:39;;;;;;;7.40;6.60;;;;;;;36.00;31.72;99108.63;5090159;28;20326;-43
2023/07/31 09:15:05;;;;;;;8.50;6.65;;;;;;;35.79;31.88;99107.38;5089766;28;20488;-42
2023/07/31 09:17:33;;;;;;;7.70;6.60;;;;;;;35.90;31.79;99117.72;5089886;28;20031;-43
2023/07/31 09:20:21;;;;;;;7.95;7.07;;;;;;;36.00;30.76;99105.88;5090049;28;20547;-43
2023/07/31 09:22:48;;;;;;;7.57;6.88;;;;;;;35.04;32.10;99102.16;5089631;28;20042;-43
2023/07/31 09:25:26;;;;;;;8.18;6.90;;;;;;;35.57;31.78;99095.41;5090052;28;20030;-43
2023/07/31 09:27:59;;;;;;;8.50;7.30;;;;;;;35.77;31.54;99095.13;5089697;28;20104;-43
2023/07/31 09:30:24;;;;;;;7.57;6.75;;;;;;;36.28;30.84;99093.31;5089800;28;20020;-44
2023/07/31 09:32:55;;;;;;;7.30;6.60;;;;;;;36.53;29.88;99096.13;5089650;28;20468;-43
2023/07/31 09:35:27;;;;;;;8.70;7.82;;;;;;;36.40;30.39;99090.97;5089635;28;20066;-46
2023/07/31 09:37:55;;;;;;;8.10;7.30;;;;;;;37.02;30.42;99082.69;5089649;28;20373;-44
2023/07/31 09:40:31;;;;;;;7.38;6.68;;;;;;;36.42;30.17;99087.00;5089514;28;20089;-44
2023/07/31 09:43:01;;;;;;;7.82;7.03;;;;;;;36.17;31.00;99080.25;5089847;28;20024;-42
2023/07/31 09:45:27;;;;;;;7.88;7.07;;;;;;;35.82;30.76;99075.38;5090595;28;20032;-42
2023/07/31 09:47:54;;;;;;;8.27;7.13;;;;;;;35.74;30.96;99068.25;5093732;28;20032;-43
2023/07/31 09:50:24;;;;;;;8.82;6.85;;;;;;;35.42;31.11;99072.41;5093708;28;20020;-43
2023/07/31 09:52:50;;;;;;;7.63;6.75;;;;;;;35.96;30.97;99066.31;5074965;28;20411;-43
2023/07/31 09:55:16;;;;;;;7.28;6.57;;;;;;;36.13;30.11;99070.31;5093310;28;20046;-41
2023/07/31 09:57:44;;;;;;;7.88;6.90;;;;;;;36.22;29.75;99069.97;5093584;28;20020;-43
2023/07/31 10:00:11;;;;;;;7.43;6.72;;;;;;;36.28;30.10;99073.94;5093291;28;20024;-44
2023/07/31 10:02:37;;;;;;;8.00;6.53;;;;;;;36.10;29.77;99074.69;5093299;28;20086;-43
2023/07/31 10:05:04;;;;;;;7.35;6.40;;;;;;;36.31;29.84;99053.75;5093287;28;20028;-44
2023/07/31 10:07:33;;;;;;;6.22;5.63;;;;;;;36.46;29.42;99069.22;5093139;28;20527;-43
2023/07/31 10:10:00;;;;;;;6.53;5.90;;;;;;;36.50;28.92;99063.66;5093387;28;20115;-44
2023/07/31 10:12:30;;;;;;;6.47;5.88;;;;;;;36.74;28.81;99062.91;5093490;28;20054;-44
2023/07/31 10:14:55;;;;;;;6.20;5.60;;;;;;;36.82;29.05;99055.38;5093276;28;20035;-44
2023/07/31 10:17:22;;;;;;;6.93;6.22;;;;;;;36.37;29.23;99047.44;5093063;28;20028;-44
2023/07/31 10:19:49;;;;;;;7.60;6.60;;;;;;;36.19;29.88;99049.38;5092848;28;20453;-42
2023/07/31 10:22:15;;;;;;;6.78;6.03;;;;;;;36.29;30.68;99054.16;5093166;28;20020;-44
2023/07/31 10:24:45;;;;;;;7.82;5.90;;;;;;;36.77;29.20;99047.47;5092918;28;20023;-43
2023/07/31 10:27:11;;;;;;;6.97;6.00;;;;;;;36.79;29.55;99051.41;5092996;28;20516;-43
2023/07/31 10:29:41;;;;;;;7.38;6.45;;;;;;;36.98;28.33;99041.88;5092828;28;20058;-44
2023/07/31 10:32:10;;;;;;;7.00;6.30;;;;;;;36.74;28.22;99037.16;5092562;28;20340;-46
2023/07/31 10:34:36;;;;;;;6.80;6.10;;;;;;;36.62;28.92;99023.72;5092751;28;20051;-44
2023/07/31 10:37:28;;;;;;;6.90;6.20;;;;;;;36.39;29.41;99027.66;5092586;28;20527;-42
2023/07/31 10:40:01;;;;;;;7.50;6.07;;;;;;;36.45;29.90;99026.06;5092985;28;20020;-43
2023/07/31 10:42:34;;;;;;;6.13;5.53;;;;;;;36.25;29.43;99025.66;5092609;28;20020;-46
2023/07/31 10:45:02;;;;;;;6.63;5.65;;;;;;;36.47;28.47;99017.38;5092763;28;20028;-42
2023/07/31 10:47:27;;;;;;;6.10;5.50;;;;;;;36.75;28.01;99017.38;5074234;28;20020;-43
2023/07/31 10:50:10;;;;;;;6.85;5.75;;;;;;;36.75;28.42;99013.81;5092631;28;20020;-45
2023/07/31 10:52:35;;;;;;;7.75;5.68;;;;;;;36.09;29.46;99014.16;5092467;28;20028;-44
2023/07/31 10:55:15;;;;;;;6.90;6.05;;;;;;;36.83;28.88;98997.97;5092401;28;20085;-43
2023/07/31 10:57:45;;;;;;;6.47;5.88;;;;;;;36.90;28.17;98989.63;5092363;28;20429;-44
2023/07/31 11:00:21;;;;;;;6.10;5.50;;;;;;;36.31;28.90;98993.63;5092455;28;20031;-44
2023/07/31 11:03:06;;;;;;;6.55;5.70;;;;;;;36.48;29.25;98994.81;5092392;28;20024;-46
2023/07/31 11:05:42;;;;;;;6.25;5.60;;;;;;;37.00;28.28;98997.13;5092203;28;20035;-46
2023/07/31 11:08:20;;;;;;;5.70;5.20;;;;;;;36.62;28.88;98993.22;5092128;28;20082;-44
2023/07/31 11:10:47;;;;;;;6.93;6.22;;;;;;;35.19;32.43;98992.50;5092189;28;20483;-45
2023/07/31 11:13:13;;;;;;;7.22;6.53;;;;;;;34.40;34.05;99002.19;5092183;28;20468;-44
2023/07/31 11:15:39;;;;;;;9.25;6.43;;;;;;;34.89;33.80;99000.22;5092053;28;20036;-43
2023/07/31 11:18:08;;;;;;;7.88;6.30;;;;;;;35.27;33.43;99004.41;5092308;28;20150;-43
2023/07/31 11:20:35;;;;;;;7.30;6.60;;;;;;;34.49;34.51;99023.97;5092356;28;20040;-45
2023/07/31 11:23:08;;;;;;;5.72;5.05;;;;;;;34.03;34.98;99020.38;5092164;28;20050;-43
2023/07/31 11:25:34;;;;;;;6.93;5.38;;;;;;;33.63;36.33;99018.34;5091654;28;20484;-42
2023/07/31 11:28:06;;;;;;;7.07;5.07;;;;;;;33.68;36.29;99020.78;5091888;28;20035;-42
2023/07/31 11:30:32;;;;;;;5.30;4.80;;;;;;;33.36;36.24;99018.41;5091442;28;20475;-43
2023/07/31 11:32:58;;;;;;;7.80;5.13;;;;;;;33.02;36.83;99021.06;5091636;28;20028;-47